createdAt,value
2018-01-26T00:00:19.721Z,7.30
2018-01-26T00:02:46.675Z,7.30
2018-01-26T00:05:13.830Z,7.40
2018-01-26T00:07:41.510Z,7.40
2018-01-26T00:10:08.394Z,7.40
2018-01-26T00:12:35.482Z,7.40
2018-01-26T00:15:03.313Z,7.30
2018-01-26T00:17:30.149Z,7.40
2018-01-26T00:19:57.809Z,7.40
2018-01-26T00:22:25.125Z,7.30
2018-01-26T00:24:53.028Z,7.40
2018-01-26T00:27:24.096Z,7.50
2018-01-26T00:29:51.350Z,7.60
2018-01-26T00:32:23.915Z,7.60
2018-01-26T00:34:52.479Z,7.50
2018-01-26T00:37:19.786Z,7.50
2018-01-26T00:39:48.464Z,7.50
2018-01-26T00:42:16.265Z,7.50
2018-01-26T00:44:43.184Z,7.50
2018-01-26T00:47:10.270Z,7.50
2018-01-26T00:49:37.682Z,7.50
2018-01-26T00:52:05.175Z,7.50
2018-01-26T00:54:32.880Z,7.40
2018-01-26T00:57:05.336Z,7.40
2018-01-26T00:59:34.236Z,7.40
2018-01-26T01:02:01.211Z,7.30
2018-01-26T01:04:28.580Z,7.20
2018-01-26T01:06:55.376Z,7.10
2018-01-26T01:09:23.119Z,7.00
2018-01-26T01:11:55.144Z,7.00
2018-01-26T01:14:27.178Z,7.00
2018-01-26T01:16:54.066Z,7.20
2018-01-26T01:19:21.058Z,7.30
2018-01-26T01:21:48.992Z,7.40
2018-01-26T01:24:17.425Z,7.40
2018-01-26T01:26:44.402Z,7.40
2018-01-26T01:29:11.497Z,7.40
2018-01-26T01:31:38.308Z,7.40
2018-01-26T01:34:06.426Z,7.30
2018-01-26T01:36:34.088Z,7.30
2018-01-26T01:39:04.164Z,7.30
2018-01-26T01:41:36.985Z,7.40
2018-01-26T01:44:03.842Z,7.30
2018-01-26T01:46:31.160Z,7.30
2018-01-26T01:49:16.022Z,7.30
2018-01-26T01:51:43.276Z,7.20
2018-01-26T01:54:10.894Z,7.10
2018-01-26T01:56:37.794Z,7.10
2018-01-26T01:59:04.776Z,7.00
2018-01-26T02:01:32.464Z,7.00
2018-01-26T02:04:00.081Z,6.90
2018-01-26T02:06:27.245Z,6.90
2018-01-26T02:08:55.288Z,6.80
2018-01-26T02:11:22.231Z,6.90
2018-01-26T02:13:49.169Z,6.80
2018-01-26T02:16:21.422Z,6.80
2018-01-26T02:18:49.194Z,6.70
2018-01-26T02:21:16.892Z,6.70
2018-01-26T02:23:44.925Z,6.70
2018-01-26T02:26:11.922Z,6.70
2018-01-26T02:28:40.217Z,6.70
2018-01-26T02:31:07.141Z,6.70
2018-01-26T02:33:35.130Z,6.70
2018-01-26T02:36:02.046Z,6.70
2018-01-26T02:38:29.932Z,6.70
2018-01-26T02:41:02.905Z,6.80
2018-01-26T02:43:30.536Z,6.80
2018-01-26T02:45:57.465Z,6.80
2018-01-26T02:48:25.025Z,6.70
2018-01-26T02:50:52.003Z,6.70
2018-01-26T02:53:24.069Z,6.70
2018-01-26T02:55:52.060Z,6.70
2018-01-26T02:58:18.933Z,6.60
2018-01-26T03:00:51.129Z,6.60
2018-01-26T03:03:21.540Z,6.60
2018-01-26T03:05:48.700Z,6.50
2018-01-26T03:08:15.693Z,6.50
2018-01-26T03:10:44.439Z,6.40
2018-01-26T03:13:11.428Z,6.40
2018-01-26T03:15:38.239Z,6.40
2018-01-26T03:18:05.237Z,6.40
2018-01-26T03:20:32.137Z,6.50
2018-01-26T03:23:00.457Z,6.40
2018-01-26T03:25:27.629Z,6.40
2018-01-26T03:27:54.890Z,6.40
2018-01-26T03:33:15.783Z,6.40
2018-01-26T03:35:43.067Z,6.40
2018-01-26T03:38:10.100Z,6.30
2018-01-26T03:40:37.267Z,6.30
2018-01-26T03:43:04.890Z,6.30
2018-01-26T03:45:31.749Z,6.30
2018-01-26T03:47:58.755Z,6.30
2018-01-26T03:50:25.828Z,6.20
2018-01-26T03:52:52.804Z,6.20
2018-01-26T03:55:20.531Z,6.10
2018-01-26T03:57:47.915Z,6.10
2018-01-26T04:00:15.596Z,6.10
2018-01-26T04:02:43.985Z,6.20
2018-01-26T04:05:11.321Z,6.20
2018-01-26T04:07:39.249Z,6.30
2018-01-26T04:10:06.131Z,6.40
2018-01-26T04:12:33.119Z,6.50
2018-01-26T04:15:00.052Z,6.60
2018-01-26T04:17:27.097Z,6.40
2018-01-26T04:19:54.190Z,6.20
2018-01-26T04:22:21.168Z,6.10
2018-01-26T04:24:49.017Z,6.10
2018-01-26T04:27:16.249Z,6.10
2018-01-26T04:29:54.593Z,6.30
2018-01-26T04:32:21.881Z,6.50
2018-01-26T04:34:49.592Z,6.60
2018-01-26T04:37:16.533Z,6.60
2018-01-26T04:39:44.226Z,6.30
2018-01-26T04:42:12.709Z,6.20
2018-01-26T04:44:39.695Z,6.20
2018-01-26T04:47:14.692Z,6.10
2018-01-26T04:49:47.476Z,6.10
2018-01-26T04:52:15.698Z,6.00
2018-01-26T04:54:43.802Z,5.90
2018-01-26T04:57:16.692Z,5.80
2018-01-26T04:59:43.930Z,5.80
2018-01-26T05:02:11.164Z,5.80
2018-01-26T05:04:38.126Z,5.80
2018-01-26T05:07:05.548Z,5.80
2018-01-26T05:09:32.402Z,5.80
2018-01-26T05:11:59.365Z,5.80
2018-01-26T05:14:26.259Z,5.90
2018-01-26T05:16:53.924Z,6.10
2018-01-26T05:19:20.998Z,6.00
2018-01-26T05:21:47.972Z,6.20
2018-01-26T05:24:15.740Z,6.40
2018-01-26T05:26:48.056Z,6.40
2018-01-26T05:29:16.823Z,6.20
2018-01-26T05:31:46.526Z,6.20
2018-01-26T05:34:21.059Z,6.00
2018-01-26T05:36:48.220Z,6.00
2018-01-26T05:39:15.530Z,6.00
2018-01-26T05:41:43.057Z,6.10
2018-01-26T05:44:10.702Z,6.10
2018-01-26T05:46:37.542Z,5.90
2018-01-26T05:49:04.655Z,5.80
2018-01-26T05:51:31.688Z,5.80
2018-01-26T05:53:58.677Z,5.80
2018-01-26T05:56:26.497Z,5.80
2018-01-26T05:58:53.648Z,5.90
2018-01-26T06:01:20.752Z,5.80
2018-01-26T06:03:53.489Z,5.80
2018-01-26T06:06:21.295Z,6.00
2018-01-26T06:08:48.651Z,6.00
2018-01-26T06:11:21.835Z,6.10
2018-01-26T06:13:48.641Z,6.10
2018-01-26T06:16:15.695Z,6.20
2018-01-26T06:18:43.208Z,6.30
2018-01-26T06:21:10.048Z,6.30
2018-01-26T06:23:39.001Z,6.30
2018-01-26T06:26:06.007Z,6.10
2018-01-26T06:28:33.689Z,6.00
2018-01-26T06:31:01.853Z,6.00
2018-01-26T06:33:29.513Z,5.90
2018-01-26T06:35:56.813Z,5.90
2018-01-26T06:38:24.290Z,5.90
2018-01-26T06:40:51.967Z,6.00
2018-01-26T06:43:19.758Z,6.10
2018-01-26T06:45:46.678Z,6.00
2018-01-26T06:48:13.838Z,6.10
2018-01-26T06:50:40.843Z,6.00
2018-01-26T06:53:13.020Z,6.10
2018-01-26T06:55:39.953Z,6.10
2018-01-26T06:58:07.027Z,6.20
2018-01-26T07:00:34.240Z,6.30
2018-01-26T07:03:06.550Z,6.30
2018-01-26T07:05:40.959Z,6.40
2018-01-26T07:08:10.165Z,6.40
2018-01-26T07:10:39.419Z,6.40
2018-01-26T07:41:11.801Z,6.30
2018-01-26T07:58:46.094Z,6.60
2018-01-26T08:01:13.770Z,6.70
2018-01-26T08:03:42.271Z,6.70
2018-01-26T08:06:09.786Z,6.60
2018-01-26T08:26:39.442Z,6.90
2018-01-26T08:58:59.957Z,6.90
2018-01-26T09:40:36.176Z,7.40
2018-01-26T09:43:04.209Z,7.40
2018-01-26T09:45:31.362Z,7.40
2018-01-26T09:48:00.189Z,7.50
2018-01-26T09:50:27.311Z,7.50
2018-01-26T09:52:54.342Z,7.50
2018-01-26T09:55:21.608Z,7.50
2018-01-26T09:57:48.777Z,7.50
2018-01-26T10:00:15.985Z,7.50
2018-01-26T10:02:43.107Z,7.60
2018-01-26T10:05:10.256Z,7.60
2018-01-26T10:07:37.774Z,7.70
2018-01-26T10:10:04.888Z,7.70
2018-01-26T10:12:42.487Z,7.60
2018-01-26T10:15:16.912Z,7.70
2018-01-26T10:17:44.150Z,7.60
2018-01-26T10:20:11.193Z,7.80
2018-01-26T10:22:46.164Z,7.80
2018-01-26T10:25:13.294Z,7.80
2018-01-26T10:27:41.317Z,7.80
2018-01-26T10:30:10.326Z,7.80
2018-01-26T10:32:37.408Z,7.80
2018-01-26T10:35:04.487Z,7.80
2018-01-26T10:37:31.634Z,7.80
2018-01-26T10:39:58.691Z,7.80
2018-01-26T10:42:29.884Z,7.80
2018-01-26T10:44:57.019Z,7.80
2018-01-26T10:47:24.080Z,7.80
2018-01-26T10:49:52.152Z,7.80
2018-01-26T10:52:20.858Z,7.90
2018-01-26T10:54:47.868Z,8.00
2018-01-26T10:57:18.811Z,8.00
2018-01-26T10:59:47.092Z,8.00
2018-01-26T11:02:14.060Z,8.00
2018-01-26T11:04:41.951Z,8.00
2018-01-26T11:07:08.979Z,8.00
2018-01-26T11:09:41.227Z,7.90
2018-01-26T11:12:08.261Z,8.10
2018-01-26T11:14:35.301Z,8.10
2018-01-26T11:17:02.333Z,8.20
2018-01-26T11:19:30.218Z,8.20
2018-01-26T11:22:00.749Z,8.20
2018-01-26T11:24:29.326Z,8.20
2018-01-26T11:26:56.401Z,8.20
2018-01-26T11:29:23.293Z,8.20
2018-01-26T11:31:50.159Z,8.20
2018-01-26T11:34:17.811Z,8.10
2018-01-26T11:36:44.822Z,8.20
2018-01-26T11:39:11.813Z,8.20
2018-01-26T11:41:40.078Z,8.30
2018-01-26T11:44:07.159Z,8.30
2018-01-26T11:46:34.154Z,8.20
2018-01-26T11:49:01.142Z,8.20
2018-01-26T12:12:27.103Z,8.40
2018-01-26T12:14:53.977Z,8.40
2018-01-26T12:17:20.865Z,8.50
2018-01-26T12:19:48.517Z,8.50
2018-01-26T12:22:15.509Z,8.50
2018-01-26T12:24:42.440Z,8.30
2018-01-26T12:27:09.360Z,8.30
2018-01-26T12:29:37.184Z,8.40
2018-01-26T12:32:05.065Z,8.50
2018-01-26T12:34:32.012Z,8.60
2018-01-26T12:36:59.992Z,8.40
2018-01-26T12:39:26.894Z,8.50
2018-01-26T12:41:53.863Z,8.60
2018-01-26T12:44:20.824Z,8.50
2018-01-26T12:46:47.670Z,8.60
2018-01-26T12:49:14.626Z,8.60
2018-01-26T12:51:41.867Z,8.60
2018-01-26T12:54:08.757Z,8.60
2018-01-26T12:56:35.758Z,8.60
2018-01-26T12:59:03.417Z,8.50
2018-01-26T13:01:30.337Z,8.50
2018-01-26T13:03:57.273Z,8.50
2018-01-26T13:06:24.209Z,8.60
2018-01-26T13:08:51.273Z,8.50
2018-01-26T13:11:18.241Z,8.50
2018-01-26T13:13:45.169Z,8.50
2018-01-26T13:16:13.578Z,8.50
2018-01-26T13:39:24.054Z,8.50
2018-01-26T13:41:51.174Z,8.60
2018-01-26T13:44:18.242Z,8.50
2018-01-26T13:46:45.373Z,8.50
2018-01-26T13:49:12.359Z,8.60
2018-01-26T13:51:40.126Z,8.50
2018-01-26T13:54:07.152Z,8.60
2018-01-26T13:56:34.321Z,8.60
2018-01-26T13:59:01.963Z,8.70
2018-01-26T14:01:29.892Z,8.70
2018-01-26T14:03:56.879Z,8.70
2018-01-26T14:06:23.872Z,8.60
2018-01-26T14:08:50.932Z,8.70
2018-01-26T14:11:17.938Z,8.70
2018-01-26T14:13:45.091Z,8.70
2018-01-26T14:16:17.134Z,8.60
2018-01-26T14:18:44.100Z,8.60
2018-01-26T14:21:14.501Z,8.60
2018-01-26T14:23:42.699Z,8.50
2018-01-26T14:26:09.634Z,8.50
2018-01-26T14:28:42.158Z,8.40
2018-01-26T14:31:16.802Z,8.50
2018-01-26T14:33:44.652Z,8.50
2018-01-26T14:36:11.711Z,8.50
2018-01-26T14:38:38.779Z,8.50
2018-01-26T14:41:07.510Z,8.40
2018-01-26T14:43:39.218Z,8.50
2018-01-26T14:46:07.323Z,8.50
2018-01-26T14:48:35.895Z,8.50
2018-01-26T14:51:03.619Z,8.50
2018-01-26T14:53:30.662Z,8.50
2018-01-26T14:56:03.555Z,8.50
2018-01-26T14:58:30.488Z,8.50
2018-01-26T15:00:58.204Z,8.50
2018-01-26T15:03:25.279Z,8.50
2018-01-26T15:05:52.305Z,8.50
2018-01-26T15:08:20.045Z,8.50
2018-01-26T15:10:48.624Z,8.50
2018-01-26T15:13:15.898Z,8.50
2018-01-26T15:15:43.281Z,8.50
2018-01-26T15:18:10.471Z,8.40
2018-01-26T15:20:37.542Z,8.30
2018-01-26T15:23:08.335Z,8.30
2018-01-26T15:25:37.518Z,8.30
2018-01-26T15:28:05.201Z,8.20
2018-01-26T15:30:33.061Z,8.00
2018-01-26T15:33:00.954Z,8.00
2018-01-26T15:35:27.981Z,8.00
2018-01-26T15:37:57.280Z,8.00
2018-01-26T15:40:24.261Z,7.90
2018-01-26T15:42:51.382Z,7.90
2018-01-26T15:45:19.084Z,7.90
2018-01-26T15:47:46.288Z,7.90
2018-01-26T15:50:13.342Z,8.00
2018-01-26T15:52:40.795Z,8.00
2018-01-26T15:55:07.829Z,8.00
2018-01-26T15:57:34.894Z,8.00
2018-01-26T16:00:01.963Z,8.00
2018-01-26T16:02:29.172Z,8.00
2018-01-26T16:04:56.170Z,7.90
2018-01-26T16:07:23.394Z,7.70
2018-01-26T16:09:50.831Z,7.60
2018-01-26T16:12:18.569Z,7.50
2018-01-26T16:14:45.483Z,7.50
2018-01-26T16:17:13.335Z,7.30
2018-01-26T16:19:41.490Z,7.10
2018-01-26T16:22:08.403Z,7.10
2018-01-26T16:24:35.244Z,7.00
2018-01-26T16:27:03.096Z,6.80
2018-01-26T16:29:30.667Z,6.80
2018-01-26T16:31:57.675Z,6.80
2018-01-26T16:34:24.574Z,6.90
2018-01-26T16:36:51.455Z,7.00
2018-01-26T16:39:19.572Z,6.80
2018-01-26T16:41:47.404Z,6.60
2018-01-26T16:44:14.483Z,6.40
2018-01-26T16:46:42.951Z,6.60
2018-01-26T16:49:09.801Z,6.60
2018-01-26T16:51:36.726Z,6.50
2018-01-26T16:54:03.695Z,6.50
2018-01-26T16:56:33.425Z,6.30
2018-01-26T16:59:00.352Z,6.30
2018-01-26T17:01:27.244Z,6.40
2018-01-26T17:03:54.165Z,6.40
2018-01-26T17:06:21.256Z,6.30
2018-01-26T17:08:48.929Z,6.40
2018-01-26T17:11:15.854Z,6.40
2018-01-26T17:13:43.461Z,6.30
2018-01-26T17:16:11.949Z,5.90
2018-01-26T17:18:38.945Z,5.90
2018-01-26T17:21:06.575Z,6.00
2018-01-26T17:23:33.426Z,5.90
2018-01-26T17:26:00.298Z,5.80
2018-01-26T17:28:27.170Z,5.90
2018-01-26T17:30:54.221Z,6.00
2018-01-26T17:33:21.086Z,5.60
2018-01-26T17:35:48.102Z,5.50
2018-01-26T17:38:15.018Z,5.70
2018-01-26T17:40:41.961Z,5.50
2018-01-26T17:43:10.595Z,5.40
2018-01-26T17:45:37.572Z,5.50
2018-01-26T17:48:04.496Z,5.40
2018-01-26T17:50:31.358Z,5.50
2018-01-26T17:52:59.009Z,5.50
2018-01-26T17:55:27.245Z,5.30
2018-01-26T17:57:54.614Z,5.20
2018-01-26T18:00:21.672Z,5.40
2018-01-26T18:02:49.950Z,5.50
2018-01-26T18:05:17.546Z,5.60
2018-01-26T18:07:44.556Z,5.70
2018-01-26T18:10:11.876Z,5.60
2018-01-26T18:12:41.023Z,5.20
2018-01-26T18:15:10.584Z,5.10
2018-01-26T18:17:39.286Z,5.10
2018-01-26T18:20:07.449Z,5.00
2018-01-26T18:22:35.009Z,5.00
2018-01-26T18:25:01.903Z,4.90
2018-01-26T18:27:29.379Z,5.00
2018-01-26T18:29:58.261Z,5.00
2018-01-26T18:41:34.346Z,5.20
2018-01-26T18:44:03.396Z,5.10
2018-01-26T18:46:32.038Z,5.50
2018-01-26T18:49:00.366Z,5.50
2018-01-26T18:51:28.079Z,5.20
2018-01-26T18:53:55.003Z,5.20
2018-01-26T18:56:21.945Z,5.10
2018-01-26T18:58:49.675Z,4.80
2018-01-26T19:01:17.579Z,4.70
2018-01-26T19:03:45.340Z,4.50
2018-01-26T19:06:12.469Z,4.30
2018-01-26T19:08:40.787Z,4.20
2018-01-26T19:11:09.526Z,4.20
2018-01-26T19:13:38.136Z,4.20
2018-01-26T19:16:06.405Z,4.10
2018-01-26T19:18:35.143Z,4.30
2018-01-26T19:21:03.891Z,4.30
2018-01-26T19:23:33.536Z,4.40
2018-01-26T19:26:02.538Z,4.40
2018-01-26T19:28:31.500Z,4.50
2018-01-26T19:31:00.194Z,4.50
2018-01-26T19:33:29.048Z,4.20
2018-01-26T19:35:58.723Z,4.10
2018-01-26T19:38:32.885Z,4.10
2018-01-26T19:41:02.486Z,3.80
2018-01-26T19:43:31.383Z,3.80
2018-01-26T19:46:00.144Z,3.80
2018-01-26T19:48:28.863Z,3.90
2018-01-26T19:50:57.781Z,3.90
2018-01-26T19:53:26.751Z,3.70
2018-01-26T19:55:56.284Z,3.50
2018-01-26T19:58:25.271Z,3.50
2018-01-26T20:00:54.188Z,3.50
2018-01-26T20:03:32.973Z,3.30
2018-01-26T20:34:54.730Z,3.00
2018-01-26T20:37:24.338Z,2.80
2018-01-26T20:39:51.933Z,2.70
2018-01-26T20:42:20.670Z,3.10
2018-01-26T20:44:49.594Z,3.10
2018-01-26T20:47:18.422Z,2.80
2018-01-26T20:49:47.351Z,2.60
2018-01-26T20:52:16.932Z,2.90
2018-01-26T20:54:45.879Z,2.90
2018-01-26T20:57:15.618Z,2.70
2018-01-26T20:59:44.672Z,2.80
2018-01-26T21:02:13.539Z,2.60
2018-01-26T21:04:42.417Z,2.90
2018-01-26T21:07:11.413Z,3.00
2018-01-26T21:09:40.373Z,3.00
2018-01-26T21:12:09.467Z,2.60
2018-01-26T21:14:38.549Z,2.60
2018-01-26T21:17:07.380Z,2.70
2018-01-26T21:19:37.177Z,2.50
2018-01-26T21:22:06.624Z,2.50
2018-01-26T21:24:36.277Z,2.20
2018-01-26T21:27:04.885Z,2.20
2018-01-26T21:29:34.007Z,2.40
2018-01-26T21:32:01.489Z,2.70
2018-01-26T21:34:29.675Z,2.90
2018-01-26T21:36:58.546Z,2.90
2018-01-26T21:39:26.427Z,3.20
2018-01-26T21:41:55.033Z,3.40
2018-01-26T21:44:21.958Z,3.30
2018-01-26T21:46:50.045Z,3.20
2018-01-26T21:49:22.019Z,3.10
2018-01-26T21:51:50.409Z,2.70
2018-01-26T21:54:19.586Z,2.40
2018-01-26T21:56:48.036Z,2.40
2018-01-26T21:59:16.518Z,2.40
2018-01-26T22:01:44.306Z,2.60
2018-01-26T22:04:12.160Z,2.70
2018-01-26T22:06:46.195Z,2.60
2018-01-26T22:09:13.059Z,2.70
2018-01-26T22:11:40.180Z,2.60
2018-01-26T22:14:07.158Z,2.80
2018-01-26T22:16:35.402Z,2.80
2018-01-26T22:19:03.373Z,3.00
2018-01-26T22:21:33.967Z,2.90
2018-01-26T22:24:01.064Z,2.90
2018-01-26T22:26:27.925Z,3.10
2018-01-26T22:28:54.756Z,3.40
2018-01-26T22:31:22.507Z,3.80
2018-01-26T22:33:50.127Z,3.70
2018-01-26T22:36:18.152Z,3.20
2018-01-26T22:38:45.200Z,3.10
2018-01-26T22:41:12.331Z,3.10
2018-01-26T22:43:39.904Z,3.10
2018-01-26T22:46:06.745Z,3.20
2018-01-26T22:48:33.538Z,3.20
2018-01-26T22:51:01.113Z,3.80
2018-01-26T22:53:30.475Z,3.90
2018-01-26T22:55:57.314Z,3.90
2018-01-26T22:58:24.179Z,3.80
2018-01-26T23:00:51.798Z,3.20
2018-01-26T23:03:18.641Z,3.20
2018-01-26T23:05:45.504Z,3.20
2018-01-26T23:08:12.349Z,3.80
2018-01-26T23:10:40.138Z,4.00
2018-01-26T23:13:07.005Z,4.10
2018-01-26T23:15:33.838Z,3.70
2018-01-26T23:18:00.640Z,3.50
2018-01-26T23:20:27.464Z,3.50
2018-01-26T23:22:54.409Z,3.70
2018-01-26T23:25:21.303Z,3.90
2018-01-26T23:27:48.912Z,3.80
2018-01-26T23:30:15.860Z,3.70
2018-01-26T23:32:42.789Z,3.90
2018-01-26T23:35:09.579Z,3.80
2018-01-26T23:37:36.435Z,3.80
2018-01-26T23:42:46.307Z,3.30
2018-01-26T23:45:13.169Z,3.50
2018-01-26T23:47:40.018Z,3.70
2018-01-26T23:50:07.643Z,3.60
2018-01-26T23:52:34.479Z,3.60
2018-01-26T23:55:01.294Z,3.60
2018-01-26T23:57:28.095Z,3.70
2018-01-26T23:59:54.933Z,3.70
